createdAt,value
2022-07-25T00:01:03.946Z,97737.19
2022-07-25T00:03:40.156Z,97732.81
2022-07-25T00:06:17.851Z,97724.94
2022-07-25T00:08:51.212Z,97728.41
2022-07-25T00:11:24.344Z,97731.91
2022-07-25T00:13:57.534Z,97724.97
2022-07-25T00:16:30.654Z,97722.38
2022-07-25T00:19:03.951Z,97731.03
2022-07-25T00:21:38.470Z,97722.31
2022-07-25T00:24:11.714Z,97719.69
2022-07-25T00:26:44.921Z,97724.03
2022-07-25T00:29:18.047Z,97722.28
2022-07-25T00:31:51.309Z,97719.69
2022-07-25T00:34:24.502Z,97719.63
2022-07-25T00:36:59.005Z,97720.38
2022-07-25T00:39:32.240Z,97713.38
2022-07-25T00:42:09.179Z,97722.84
2022-07-25T00:44:42.292Z,97720.19
2022-07-25T00:47:15.402Z,97724.44
2022-07-25T00:49:48.748Z,97720.94
2022-07-25T00:52:24.672Z,97723.53
2022-07-25T00:54:58.012Z,97715.72
2022-07-25T00:57:31.147Z,97715.63
2022-07-25T01:00:07.718Z,97712.97
2022-07-25T01:02:40.974Z,97715.53
2022-07-25T01:05:14.186Z,97716.31
2022-07-25T01:07:49.091Z,97719.81
2022-07-25T01:10:22.166Z,97714.50
2022-07-25T01:12:56.449Z,97712.78
2022-07-25T01:15:30.164Z,97719.53
2022-07-25T01:18:03.487Z,97717.91
2022-07-25T01:20:37.992Z,97716.13
2022-07-25T01:23:11.105Z,97714.38
2022-07-25T01:25:44.226Z,97714.31
2022-07-25T01:28:18.307Z,97713.44
2022-07-25T01:30:51.480Z,97712.56
2022-07-25T01:33:24.593Z,97714.31
2022-07-25T01:35:59.136Z,97715.03
2022-07-25T01:38:32.297Z,97716.69
2022-07-25T01:41:05.510Z,97714.09
2022-07-25T01:43:38.742Z,97708.78
2022-07-25T01:46:12.073Z,97712.97
2022-07-25T01:48:45.415Z,97706.91
2022-07-25T01:51:20.615Z,97703.19
2022-07-25T01:53:53.732Z,97707.25
2022-07-25T01:56:26.862Z,97702.94
2022-07-25T01:59:01.679Z,97699.56
2022-07-25T02:01:34.857Z,97699.56
2022-07-25T02:04:08.426Z,97701.38
2022-07-25T02:06:43.215Z,97695.28
2022-07-25T02:09:16.586Z,97687.50
2022-07-25T02:11:49.685Z,97689.25
2022-07-25T02:14:22.811Z,97682.31
2022-07-25T02:16:56.138Z,97682.31
2022-07-25T02:19:29.312Z,97680.50
2022-07-25T02:22:04.067Z,97677.13
2022-07-25T02:24:37.338Z,97678.81
2022-07-25T02:27:10.527Z,97676.22
2022-07-25T02:29:43.623Z,97678.81
2022-07-25T02:32:16.694Z,97664.97
2022-07-25T02:34:49.795Z,97662.38
2022-07-25T02:37:24.368Z,97657.13
2022-07-25T02:39:57.448Z,97665.81
2022-07-25T02:42:30.549Z,97667.56
2022-07-25T02:45:03.904Z,97661.38
2022-07-25T02:47:37.038Z,97663.06
2022-07-25T02:50:14.815Z,97663.88
2022-07-25T02:52:49.570Z,97655.25
2022-07-25T02:55:23.138Z,97655.22
2022-07-25T02:57:56.371Z,97653.53
2022-07-25T03:00:30.352Z,97657.84
2022-07-25T03:03:03.555Z,97650.84
2022-07-25T03:05:37.403Z,97645.50
2022-07-25T03:08:11.882Z,97639.47
2022-07-25T03:10:45.064Z,97648.91
2022-07-25T03:13:18.199Z,97640.22
2022-07-25T03:15:53.030Z,97636.66
2022-07-25T03:18:26.123Z,97639.38
2022-07-25T03:20:59.254Z,97634.94
2022-07-25T03:23:33.735Z,97634.94
2022-07-25T03:26:07.408Z,97633.41
2022-07-25T03:28:40.500Z,97632.50
2022-07-25T03:31:13.611Z,97634.22
2022-07-25T03:33:46.957Z,97632.44
2022-07-25T03:36:20.452Z,97634.19
2022-07-25T03:38:56.638Z,97620.34
2022-07-25T03:41:29.698Z,97620.34
2022-07-25T03:44:02.975Z,97624.63
2022-07-25T03:46:36.415Z,97616.84
2022-07-25T03:49:09.569Z,97624.66
2022-07-25T03:51:42.943Z,97615.09
2022-07-25T03:54:17.399Z,97619.31
2022-07-25T03:56:52.765Z,97605.56
2022-07-25T03:59:26.119Z,97614.09
2022-07-25T04:01:59.309Z,97603.72
2022-07-25T04:04:32.499Z,97604.53
2022-07-25T04:07:05.606Z,97601.00
2022-07-25T04:09:40.076Z,97594.84
2022-07-25T04:12:13.208Z,97593.06
2022-07-25T04:14:46.313Z,97588.81
2022-07-25T04:17:19.488Z,97594.94
2022-07-25T04:19:54.123Z,97580.34
2022-07-25T04:22:27.964Z,97581.22
2022-07-25T04:25:02.743Z,97582.13
2022-07-25T04:27:35.867Z,97579.63
2022-07-25T04:30:11.094Z,97578.09
2022-07-25T04:32:44.179Z,97572.88
2022-07-25T04:35:17.259Z,97567.81
2022-07-25T04:37:50.654Z,97567.91
2022-07-25T04:40:25.089Z,97570.59
2022-07-25T04:42:58.174Z,97575.00
2022-07-25T04:45:31.434Z,97563.78
2022-07-25T04:48:05.587Z,97572.56
2022-07-25T04:50:38.755Z,97570.03
2022-07-25T04:53:12.330Z,97574.41
2022-07-25T04:55:46.805Z,97575.47
2022-07-25T04:58:20.187Z,97566.94
2022-07-25T05:00:53.376Z,97567.84
2022-07-25T05:03:26.905Z,97572.13
2022-07-25T05:06:00.023Z,97571.34
2022-07-25T05:08:33.156Z,97573.19
2022-07-25T05:11:07.909Z,97567.31
2022-07-25T05:13:41.062Z,97571.78
2022-07-25T05:16:14.184Z,97565.84
2022-07-25T05:18:47.380Z,97568.50
2022-07-25T05:21:20.494Z,97568.63
2022-07-25T05:23:53.596Z,97567.06
2022-07-25T05:26:28.018Z,97567.53
2022-07-25T05:29:01.104Z,97569.69
2022-07-25T05:31:34.223Z,97566.53
2022-07-25T05:34:07.715Z,97563.94
2022-07-25T05:36:45.464Z,97564.72
2022-07-25T05:39:20.253Z,97558.44
2022-07-25T05:41:54.739Z,97558.06
2022-07-25T05:44:27.827Z,97562.91
2022-07-25T05:47:01.087Z,97561.59
2022-07-25T05:49:34.263Z,97560.31
2022-07-25T05:52:12.499Z,97567.69
2022-07-25T05:54:46.296Z,97554.91
2022-07-25T05:57:20.846Z,97554.28
2022-07-25T05:59:53.940Z,97554.44
2022-07-25T06:02:27.090Z,97552.91
2022-07-25T06:05:00.637Z,97553.06
2022-07-25T06:07:33.703Z,97552.72
2022-07-25T06:10:07.507Z,97550.53
2022-07-25T06:12:41.944Z,97539.91
2022-07-25T06:15:22.806Z,97545.41
2022-07-25T06:17:59.716Z,97539.66
2022-07-25T06:20:32.829Z,97538.94
2022-07-25T06:23:05.881Z,97538.50
2022-07-25T06:25:38.979Z,97537.59
2022-07-25T06:28:14.548Z,97543.16
2022-07-25T06:30:51.455Z,97534.81
2022-07-25T06:33:24.501Z,97533.22
2022-07-25T06:35:57.612Z,97523.38
2022-07-25T06:38:30.708Z,97520.84
2022-07-25T06:41:04.351Z,97515.75
2022-07-25T06:43:38.776Z,97502.94
2022-07-25T06:46:11.985Z,97510.16
2022-07-25T06:48:45.154Z,97519.44
2022-07-25T06:51:18.258Z,97521.84
2022-07-25T06:53:51.363Z,97517.28
2022-07-25T06:56:24.448Z,97520.59
2022-07-25T06:58:58.934Z,97512.25
2022-07-25T07:01:32.130Z,97513.75
2022-07-25T07:04:06.330Z,97505.56
2022-07-25T07:06:39.950Z,97514.28
2022-07-25T07:09:13.128Z,97516.31
2022-07-25T07:11:46.206Z,97514.81
2022-07-25T07:14:20.688Z,97514.81
2022-07-25T07:16:53.783Z,97506.00
2022-07-25T07:19:26.879Z,97506.69
2022-07-25T07:21:59.996Z,97511.72
2022-07-25T07:24:33.207Z,97502.56
2022-07-25T07:27:06.863Z,97501.28
2022-07-25T07:29:42.028Z,97498.50
2022-07-25T07:32:15.570Z,97501.50
2022-07-25T07:34:48.647Z,97497.00
2022-07-25T07:37:21.810Z,97500.44
2022-07-25T07:39:54.873Z,97496.06
2022-07-25T07:42:27.940Z,97492.19
2022-07-25T07:45:02.449Z,97492.50
2022-07-25T07:47:35.563Z,97486.09
2022-07-25T07:50:10.665Z,97489.69
2022-07-25T07:52:44.310Z,97497.81
2022-07-25T07:55:35.251Z,97484.28
2022-07-25T07:58:08.367Z,97488.88
2022-07-25T08:00:43.791Z,97485.00
2022-07-25T08:03:20.387Z,97481.56
2022-07-25T08:05:53.863Z,97480.34
2022-07-25T08:08:31.130Z,97476.78
2022-07-25T08:11:04.884Z,97486.19
2022-07-25T08:13:38.354Z,97484.22
2022-07-25T08:16:14.123Z,97488.06
2022-07-25T08:18:47.376Z,97483.75
2022-07-25T08:21:20.458Z,97485.09
2022-07-25T08:23:53.551Z,97482.69
2022-07-25T08:26:27.915Z,97479.53
2022-07-25T08:29:18.288Z,97469.13
2022-07-25T08:31:54.017Z,97477.00
2022-07-25T08:34:27.123Z,97471.47
2022-07-25T08:37:02.485Z,97466.75
2022-07-25T08:39:35.543Z,97474.34
2022-07-25T08:42:11.236Z,97469.22
2022-07-25T08:44:51.803Z,97468.19
2022-07-25T08:47:26.571Z,97461.06
2022-07-25T08:50:04.217Z,97467.66
2022-07-25T08:52:38.053Z,97461.59
2022-07-25T08:55:14.647Z,97452.59
2022-07-25T08:57:50.469Z,97458.63
2022-07-25T09:00:28.745Z,97453.41
2022-07-25T09:03:06.337Z,97453.84
2022-07-25T09:05:40.706Z,97465.03
2022-07-25T09:08:17.269Z,97459.56
2022-07-25T09:10:52.190Z,97459.38
2022-07-25T09:13:27.666Z,97452.59
2022-07-25T09:16:00.890Z,97460.19
2022-07-25T09:18:36.410Z,97462.47
2022-07-25T09:21:15.143Z,97449.91
2022-07-25T09:23:48.205Z,97461.84
2022-07-25T09:26:21.541Z,97462.22
2022-07-25T09:28:56.138Z,97452.25
2022-07-25T09:31:34.996Z,97450.13
2022-07-25T09:34:10.627Z,97449.03
2022-07-25T09:36:54.198Z,97454.91
2022-07-25T09:39:36.591Z,97445.59
2022-07-25T09:42:23.730Z,97449.06
2022-07-25T09:45:04.073Z,97444.22
2022-07-25T09:47:40.134Z,97445.53
2022-07-25T09:50:14.752Z,97445.59
2022-07-25T09:52:48.282Z,97438.38
2022-07-25T09:55:22.323Z,97447.69
2022-07-25T09:57:55.523Z,97436.50
2022-07-25T10:00:30.399Z,97436.84
2022-07-25T10:03:18.375Z,97434.25
2022-07-25T10:06:10.087Z,97429.78
2022-07-25T10:08:43.926Z,97427.19
2022-07-25T10:11:22.400Z,97439.78
2022-07-25T10:13:56.729Z,97435.53
2022-07-25T10:16:29.904Z,97429.78
2022-07-25T10:19:03.760Z,97436.03
2022-07-25T10:21:38.368Z,97429.78
2022-07-25T10:24:12.609Z,97426.06
2022-07-25T10:26:54.279Z,97425.13
2022-07-25T10:29:36.004Z,97424.44
2022-07-25T10:32:10.924Z,97420.91
2022-07-25T10:34:53.916Z,97418.06
2022-07-25T10:37:29.954Z,97419.81
2022-07-25T10:40:04.023Z,97408.50
2022-07-25T10:42:37.123Z,97405.38
2022-07-25T10:45:18.668Z,97406.38
2022-07-25T10:47:55.760Z,97411.03
2022-07-25T10:50:53.312Z,97408.91
2022-07-25T10:53:44.008Z,97397.53
2022-07-25T10:56:22.170Z,97400.22
2022-07-25T10:58:57.666Z,97392.56
2022-07-25T11:01:33.872Z,97399.81
2022-07-25T11:04:16.319Z,97396.84
2022-07-25T11:06:49.411Z,97398.09
2022-07-25T11:09:27.630Z,97398.75
2022-07-25T11:12:01.512Z,97386.81
2022-07-25T11:14:37.905Z,97394.03
2022-07-25T11:17:15.605Z,97385.75
2022-07-25T11:19:56.954Z,97382.31
2022-07-25T11:22:31.744Z,97378.81
2022-07-25T11:25:13.952Z,97378.28
2022-07-25T11:27:51.553Z,97374.13
2022-07-25T11:30:24.896Z,97375.53
2022-07-25T11:33:01.564Z,97374.78
2022-07-25T11:35:35.101Z,97370.81
2022-07-25T11:38:08.603Z,97373.47
2022-07-25T11:40:46.606Z,97362.06
2022-07-25T11:43:23.719Z,97365.94
2022-07-25T11:45:59.304Z,97345.16
2022-07-25T11:48:36.084Z,97343.59
2022-07-25T11:51:18.612Z,97341.63
2022-07-25T11:53:52.917Z,97335.91
2022-07-25T11:56:43.593Z,97331.16
2022-07-25T11:59:17.073Z,97324.66
2022-07-25T12:01:50.246Z,97323.78
2022-07-25T12:04:23.720Z,97327.59
2022-07-25T12:07:06.332Z,97325.03
2022-07-25T12:09:39.551Z,97327.22
2022-07-25T12:12:13.974Z,97318.78
2022-07-25T12:14:47.047Z,97318.16
2022-07-25T12:17:20.224Z,97316.00
2022-07-25T12:19:53.298Z,97326.75
2022-07-25T12:22:26.433Z,97323.09
2022-07-25T12:24:59.500Z,97301.34
2022-07-25T12:27:34.485Z,97308.66
2022-07-25T12:30:09.685Z,97295.25
2022-07-25T12:32:43.248Z,97299.81
2022-07-25T12:35:16.384Z,97297.91
2022-07-25T12:37:49.860Z,97290.56
2022-07-25T12:40:24.180Z,97292.53
2022-07-25T12:42:59.408Z,97293.03
2022-07-25T12:45:32.657Z,97295.53
2022-07-25T12:48:06.746Z,97291.31
2022-07-25T12:50:39.831Z,97284.50
2022-07-25T12:53:14.407Z,97283.09
2022-07-25T12:55:47.517Z,97287.94
2022-07-25T12:58:22.009Z,97275.25
2022-07-25T13:01:00.969Z,97285.56
2022-07-25T13:03:36.768Z,97280.72
2022-07-25T13:06:10.005Z,97269.16
2022-07-25T13:08:43.068Z,97265.81
2022-07-25T13:11:16.275Z,97263.34
2022-07-25T13:13:50.738Z,97258.84
2022-07-25T13:16:24.039Z,97255.06
2022-07-25T13:18:57.159Z,97257.06
2022-07-25T13:21:31.063Z,97254.25
2022-07-25T13:24:04.629Z,97253.47
2022-07-25T13:26:38.814Z,97249.78
2022-07-25T13:29:13.282Z,97245.97
2022-07-25T13:31:47.251Z,97247.91
2022-07-25T13:34:20.884Z,97242.41
2022-07-25T13:36:54.018Z,97254.03
2022-07-25T13:39:27.275Z,97252.91
2022-07-25T13:42:00.355Z,97250.16
2022-07-25T13:44:34.763Z,97242.25
2022-07-25T13:47:08.014Z,97251.00
2022-07-25T13:49:41.561Z,97243.13
2022-07-25T13:52:14.637Z,97258.75
2022-07-25T13:54:47.706Z,97256.88
2022-07-25T13:57:20.809Z,97259.03
2022-07-25T13:59:55.364Z,97266.81
2022-07-25T14:02:28.526Z,97261.97
2022-07-25T14:05:04.194Z,97259.47
2022-07-25T14:07:37.940Z,97257.22
2022-07-25T14:10:12.126Z,97256.00
2022-07-25T14:12:45.240Z,97271.16
2022-07-25T14:15:19.768Z,97269.31
2022-07-25T14:17:53.650Z,97263.03
2022-07-25T14:20:27.158Z,97267.13
2022-07-25T14:23:00.265Z,97262.63
2022-07-25T14:25:33.355Z,97255.69
2022-07-25T14:28:06.547Z,97260.25
2022-07-25T14:30:40.984Z,97258.41
2022-07-25T14:33:14.068Z,97251.50
2022-07-25T14:35:47.237Z,97257.72
2022-07-25T14:38:20.329Z,97256.47
2022-07-25T14:40:53.394Z,97246.63
2022-07-25T14:43:26.461Z,97245.59
2022-07-25T14:46:00.918Z,97235.25
2022-07-25T14:48:34.089Z,97234.75
2022-07-25T14:51:08.151Z,97245.03
2022-07-25T14:53:41.285Z,97255.13
2022-07-25T14:56:14.356Z,97298.78
2022-07-25T14:58:47.503Z,97327.69
2022-07-25T15:01:25.268Z,97428.47
2022-07-25T15:04:00.142Z,97350.78
2022-07-25T15:06:33.246Z,97365.09
2022-07-25T15:09:07.278Z,97354.19
2022-07-25T15:11:40.685Z,97335.09
2022-07-25T15:14:14.164Z,97346.94
2022-07-25T15:16:48.666Z,97331.44
2022-07-25T15:19:21.777Z,97327.31
2022-07-25T15:21:54.884Z,97329.94
2022-07-25T15:24:29.389Z,97329.13
2022-07-25T15:27:03.959Z,97330.03
2022-07-25T15:29:37.029Z,97327.53
2022-07-25T15:32:11.439Z,97322.16
2022-07-25T15:34:44.571Z,97317.88
2022-07-25T15:37:17.636Z,97317.00
2022-07-25T15:39:51.107Z,97316.19
2022-07-25T15:42:28.858Z,97319.66
2022-07-25T15:45:31.970Z,97308.28
2022-07-25T15:47:57.323Z,97307.03
2022-07-25T15:50:30.474Z,97308.06
2022-07-25T15:53:03.842Z,97302.88
2022-07-25T15:55:38.537Z,97303.69
2022-07-25T15:58:12.614Z,97308.84
2022-07-25T16:00:45.758Z,97314.13
2022-07-25T16:03:21.485Z,97292.22
2022-07-25T16:05:56.600Z,97298.31
2022-07-25T16:08:29.650Z,97294.94
2022-07-25T16:11:02.755Z,97296.81
2022-07-25T16:13:35.828Z,97295.75
2022-07-25T16:16:10.023Z,97293.13
2022-07-25T16:18:44.720Z,97294.84
2022-07-25T16:21:17.953Z,97306.28
2022-07-25T16:23:51.129Z,97321.13
2022-07-25T16:26:24.669Z,97321.81
2022-07-25T16:28:57.928Z,97307.69
2022-07-25T16:31:31.108Z,97310.31
2022-07-25T16:34:05.867Z,97310.19
2022-07-25T16:36:39.062Z,97310.06
2022-07-25T16:39:12.153Z,97307.22
2022-07-25T16:41:45.590Z,97302.69
2022-07-25T16:44:19.088Z,97303.66
2022-07-25T16:46:52.269Z,97298.41
2022-07-25T16:49:26.803Z,97305.44
2022-07-25T16:51:59.900Z,97309.75
2022-07-25T16:54:33.220Z,97296.69
2022-07-25T16:57:06.974Z,97296.66
2022-07-25T16:59:40.245Z,97292.19
2022-07-25T17:02:13.390Z,97293.91
2022-07-25T17:04:48.338Z,97292.97
2022-07-25T17:07:21.483Z,97286.75
2022-07-25T17:09:55.015Z,97285.03
2022-07-25T17:12:28.094Z,97281.50
2022-07-25T17:15:01.205Z,97286.75
2022-07-25T17:17:35.449Z,97284.97
2022-07-25T17:20:11.487Z,97278.81
2022-07-25T17:22:44.522Z,97287.59
2022-07-25T17:25:17.783Z,97285.91
2022-07-25T17:27:50.886Z,97283.34
2022-07-25T17:30:24.078Z,97279.06
2022-07-25T17:32:58.567Z,97284.38
2022-07-25T17:35:33.038Z,97280.94
2022-07-25T17:38:06.371Z,97278.34
2022-07-25T17:40:40.835Z,97294.97
2022-07-25T17:43:13.897Z,97295.03
2022-07-25T17:45:47.322Z,97293.09
2022-07-25T17:48:20.983Z,97299.34
2022-07-25T17:50:55.438Z,97303.13
2022-07-25T17:53:28.747Z,97301.06
2022-07-25T17:56:02.836Z,97304.56
2022-07-25T17:58:36.095Z,97311.53
2022-07-25T18:01:10.680Z,97309.81
2022-07-25T18:03:47.425Z,97313.28
2022-07-25T18:06:25.125Z,97312.44
2022-07-25T18:09:02.666Z,97321.25
2022-07-25T18:11:35.950Z,97320.47
2022-07-25T18:14:09.836Z,97322.97
2022-07-25T18:16:45.357Z,97330.16
2022-07-25T18:19:18.590Z,97333.75
2022-07-25T18:21:53.665Z,97333.97
2022-07-25T18:24:29.357Z,97329.63
2022-07-25T18:27:02.719Z,97342.75
2022-07-25T18:29:38.242Z,97349.78
2022-07-25T18:32:11.344Z,97346.34
2022-07-25T18:34:44.559Z,97355.13
2022-07-25T18:37:19.266Z,97361.41
2022-07-25T18:39:52.342Z,97363.16
2022-07-25T18:42:29.665Z,97364.13
2022-07-25T18:45:04.791Z,97363.25
2022-07-25T18:47:38.442Z,97371.22
2022-07-25T18:50:12.036Z,97371.34
2022-07-25T18:52:46.500Z,97374.03
2022-07-25T18:55:19.604Z,97388.09
2022-07-25T18:57:52.767Z,97384.84
2022-07-25T19:00:26.194Z,97400.69
2022-07-25T19:02:59.250Z,97402.53
2022-07-25T19:05:33.012Z,97398.25
2022-07-25T19:08:08.073Z,97409.63
2022-07-25T19:10:41.861Z,97407.94
2022-07-25T19:13:32.742Z,97423.53
2022-07-25T19:16:10.599Z,97418.34
2022-07-25T19:18:43.908Z,97428.75
2022-07-25T19:21:17.010Z,97439.09
2022-07-25T19:23:51.645Z,97442.63
2022-07-25T19:26:24.837Z,97450.50
2022-07-25T19:28:58.698Z,97464.41
2022-07-25T19:31:31.831Z,97474.06
2022-07-25T19:34:05.457Z,97482.75
2022-07-25T19:36:38.960Z,97488.81
2022-07-25T19:39:13.749Z,97493.16
2022-07-25T19:41:47.330Z,97504.56
2022-07-25T19:44:20.939Z,97494.94
2022-07-25T19:46:54.302Z,97487.16
2022-07-25T19:49:27.439Z,97484.63
2022-07-25T19:52:01.606Z,97491.63
2022-07-25T19:54:36.323Z,97500.38
2022-07-25T19:57:09.669Z,97508.19
2022-07-25T19:59:42.731Z,97509.09
2022-07-25T20:02:15.846Z,97516.19
2022-07-25T20:04:49.009Z,97519.69
2022-07-25T20:07:22.186Z,97512.78
2022-07-25T20:09:56.604Z,97515.34
2022-07-25T20:12:29.747Z,97516.31
2022-07-25T20:15:03.188Z,97515.44
2022-07-25T20:17:36.666Z,97527.66
2022-07-25T20:20:11.410Z,97528.53
2022-07-25T20:22:44.600Z,97526.69
2022-07-25T20:25:22.384Z,97526.78
2022-07-25T20:27:55.462Z,97532.06
2022-07-25T20:30:34.388Z,97541.72
2022-07-25T20:33:09.748Z,97547.84
2022-07-25T20:35:42.996Z,97546.16
2022-07-25T20:38:16.182Z,97557.53
2022-07-25T20:40:50.623Z,97551.44
2022-07-25T20:43:23.975Z,97568.88
2022-07-25T20:45:57.484Z,97563.69
2022-07-25T20:48:30.680Z,97561.09
2022-07-25T20:51:03.808Z,97568.97
2022-07-25T20:53:36.839Z,97574.22
2022-07-25T20:56:11.483Z,97571.63
2022-07-25T20:58:44.550Z,97573.41
2022-07-25T21:01:17.711Z,97579.50
2022-07-25T21:03:50.773Z,97575.16
2022-07-25T21:06:27.111Z,97580.38
2022-07-25T21:09:00.561Z,97583.91
2022-07-25T21:11:36.590Z,97582.16
2022-07-25T21:14:10.089Z,97585.69
2022-07-25T21:16:43.855Z,97593.47
2022-07-25T21:19:16.955Z,97591.78
2022-07-25T21:21:50.217Z,97602.22
2022-07-25T21:24:23.292Z,97595.25
2022-07-25T21:26:57.695Z,97602.22
2022-07-25T21:29:30.744Z,97610.94
2022-07-25T21:32:04.695Z,97614.44
2022-07-25T21:34:37.860Z,97625.75
2022-07-25T21:37:10.970Z,97633.56
2022-07-25T21:39:44.196Z,97637.94
2022-07-25T21:42:19.090Z,97637.94
2022-07-25T21:44:52.129Z,97636.19
2022-07-25T21:47:25.207Z,97644.00
2022-07-25T21:50:19.195Z,97650.97
2022-07-25T21:52:58.286Z,97655.34
2022-07-25T21:55:31.332Z,97657.94
2022-07-25T21:58:05.928Z,97657.09
2022-07-25T22:00:43.881Z,97659.66
2022-07-25T22:03:18.968Z,97663.16
2022-07-25T22:05:52.109Z,97665.78
2022-07-25T22:08:25.235Z,97663.16
2022-07-25T22:10:58.500Z,97659.66
2022-07-25T22:13:33.040Z,97667.50
2022-07-25T22:16:06.613Z,97672.72
2022-07-25T22:18:39.721Z,97677.00
2022-07-25T22:21:15.747Z,97680.50
2022-07-25T22:23:48.991Z,97677.00
2022-07-25T22:26:22.318Z,97690.94
2022-07-25T22:28:56.766Z,97680.50
2022-07-25T22:31:29.926Z,97678.75
2022-07-25T22:34:03.050Z,97684.84
2022-07-25T22:36:36.172Z,97694.38
2022-07-25T22:39:09.630Z,97694.38
2022-07-25T22:41:42.860Z,97696.13
2022-07-25T22:44:17.431Z,97698.72
2022-07-25T22:46:50.533Z,97692.59
2022-07-25T22:49:25.223Z,97696.03
2022-07-25T22:51:58.390Z,97707.34
2022-07-25T22:54:31.584Z,97714.25
2022-07-25T22:57:05.207Z,97722.06
2022-07-25T22:59:39.770Z,97723.78
2022-07-25T23:02:12.852Z,97725.50
2022-07-25T23:04:45.948Z,97728.09
2022-07-25T23:07:19.186Z,97734.16
2022-07-25T23:09:52.420Z,97735.88
2022-07-25T23:12:25.569Z,97740.13
2022-07-25T23:15:01.227Z,97739.28
2022-07-25T23:17:34.370Z,97741.78
2022-07-25T23:20:09.990Z,97739.16
2022-07-25T23:22:43.585Z,97735.69
2022-07-25T23:25:18.618Z,97747.91
2022-07-25T23:27:51.747Z,97737.47
2022-07-25T23:30:26.302Z,97744.41
2022-07-25T23:32:59.409Z,97749.63
2022-07-25T23:35:32.654Z,97740.09
2022-07-25T23:38:06.213Z,97740.94
2022-07-25T23:40:39.341Z,97756.56
2022-07-25T23:43:12.507Z,97759.19
2022-07-25T23:45:49.553Z,97760.03
2022-07-25T23:48:24.256Z,97772.16
2022-07-25T23:50:57.399Z,97773.84
2022-07-25T23:53:30.533Z,97773.84
2022-07-25T23:56:03.757Z,97777.25
2022-07-25T23:58:36.917Z,97780.72
